Terminal Aerodrome Forecast
Issued by NWS Sioux Falls, SD

Home | Current Version | Previous Version | Text Only | Print | Product List | Glossary On
Versions: 1 2 3 4 5 6 7 8 9 10 11 12 13 14 15 16 17 18 19 20 21 22 23 24 25 26 27 28
727
FTUS43 KFSD 142322
TAFSUX
TAF
KSUX 142322Z 1500/1524 00000KT P6SM SCT250
     FM151500 14004KT P6SM BKN120
     FM152200 15005KT P6SM OVC060=

USA.gov is the U.S. government's official web portal to all federal, state and local government web resources and services.